Hlavní strana
METAR-TAF:

METAR-TAF

Letiště :

Anderson, Jižní Karolína, Spojené státy americké

zeměpisná šířka: 34-29-52N, zeměpisná délka: 082-42-35W, výška: 238 m

Aktuální stav počasí

Zpráva byla vytvořena před 15 minutami, v 10:56 UTC
Bezvětří
Teplota 21°C
Vlhkost vzduchu 88%
Tlak 1022 hPa
Viditelnost: 16.1 km
Jasno

METAR: KAND 241056Z AUTO 00000KT 10SM CLR 21/19 A3017 RMK AO2 SLP205 T02110194

Čas: 07:11 (11:11 UTC)

Předpověď počasí

Zpráva byla vytvořena před 5 hodinami a 41 minutami, v 05:30 UTC
Předpověď platná od 24 v 06 UTC do 25 v 06 UTC
vítr z různých směrů 2 kt
Viditelnost: 10 km
Polojasno ve výšce 25000 ft
Od 24 v 1400 UTC
Západní vítr 9 kt
Viditelnost: 10 km
Jasno
Od 24 v 1600 UTC
Západní vítr 9 kt
Viditelnost: 10 km
Skoro jasno ve výšce 6000 ft
Od 25 v 0100 UTC
vítr z různých směrů 2 kt
Viditelnost: 10 km
Polojasno ve výšce 25000 ft

TAF: KAND 240530Z 2406/2506 VRB02KT P6SM SCT250 FM241400 26009KT P6SM SKC FM241600 26009KT P6SM FEW060 FM250100 VRB02KT P6SM SCT250

Stav a předpovědi počasí z více než 4 000 letišť (zprávy METAR a TAF).

Červené a žluté tečky na mapě představují dostupné meteorologické stanice.

Když kurzor umístíte na tečku, zobrazí se název stanice.

Pak kliknutím zobrazíte stav a předpověď počasí.

Chcete-li změnit mapu, kliknutím na zelené tlačítko se znaménkem +mapu přiblížíte, kliknutím na zelené tlačítko se znaménkem – mapu oddálíte a kliknutím na zelené šipky přejdete na sousední mapy.


METAR-TAF: